Time;durP1;ratioP1;P1;durP2;ratioP2;P2;SDS_P1;SDS_P2;PMS_P1;PMS_P2;Temp;Humidity;BMP_temperature;BMP_pressure;BME280_temperature;BME280_humidity;BME280_pressure;Samples;Min_cycle;Max_cycle;Signal;HPM_P1;HPM_P2
2023/06/25 00:00:44;;;;;;;8.00;6.78;;;;;;;;;;5051167;28;20057;-77
2023/06/25 00:03:11;;;;;;;9.68;5.70;;;;;;;;;;5055976;28;20131;-76
2023/06/25 00:05:37;;;;;;;10.73;6.78;;;;;;;;;;5053299;28;20072;-76
2023/06/25 00:08:05;;;;;;;12.48;6.38;;;;;;;;;;5054971;28;20080;-77
2023/06/25 00:10:31;;;;;;;9.63;6.88;;;;;;;;;;5055291;28;20048;-77
2023/06/25 00:12:58;;;;;;;9.60;6.38;;;;;;;;;;5057880;28;20512;-77
2023/06/25 00:15:27;;;;;;;8.23;6.25;;;;;;;;;;5057949;28;20508;-76
2023/06/25 00:17:54;;;;;;;8.70;6.22;;;;;;;;;;5051469;28;20055;-76
2023/06/25 00:20:20;;;;;;;8.77;6.28;;;;;;;;;;5051144;28;20458;-77
2023/06/25 00:22:47;;;;;;;10.07;6.68;;;;;;;;;;5051793;28;20080;-77
2023/06/25 00:25:15;;;;;;;7.78;6.20;;;;;;;;;;5051342;28;20041;-77
2023/06/25 00:27:47;;;;;;;8.02;6.03;;;;;;;;;;5051537;28;20155;-76
2023/06/25 00:30:14;;;;;;;8.50;6.03;;;;;;;;;;5051543;28;20045;-76
2023/06/25 00:32:42;;;;;;;9.45;6.78;;;;;;;;;;5051633;28;20455;-76
2023/06/25 00:35:09;;;;;;;8.10;6.35;;;;;;;;;;5051017;28;20045;-77
2023/06/25 00:37:37;;;;;;;9.27;6.70;;;;;;;;;;5051713;28;20077;-76
2023/06/25 00:40:04;;;;;;;8.27;6.00;;;;;;;;;;5055262;28;20041;-76
2023/06/25 00:42:41;;;;;;;9.30;6.78;;;;;;;;;;5055599;28;20147;-76
2023/06/25 00:45:10;;;;;;;8.90;6.15;;;;;;;;;;5055021;28;20403;-76
2023/06/25 00:47:37;;;;;;;9.80;6.60;;;;;;;;;;5054991;28;20076;-76
2023/06/25 00:50:09;;;;;;;9.02;6.50;;;;;;;;;;5054717;28;20077;-77
2023/06/25 00:52:36;;;;;;;8.73;5.70;;;;;;;;;;5055020;28;20496;-77
2023/06/25 00:55:02;;;;;;;9.10;6.65;;;;;;;;;;5055256;28;20128;-76
2023/06/25 00:57:29;;;;;;;8.00;6.10;;;;;;;;;;5054876;28;20045;-75
2023/06/25 00:59:57;;;;;;;8.38;6.25;;;;;;;;;;5055309;28;20087;-76
2023/06/25 01:02:35;;;;;;;8.40;6.10;;;;;;;;;;5054868;28;20137;-76
2023/06/25 01:05:09;;;;;;;7.95;6.18;;;;;;;;;;5066566;28;20152;-75
2023/06/25 01:07:37;;;;;;;9.90;6.63;;;;;;;;;;5054425;28;20044;-76
2023/06/25 01:10:05;;;;;;;8.40;7.18;;;;;;;;;;5054518;28;20658;-76
2023/06/25 01:12:31;;;;;;;8.55;7.18;;;;;;;;;;5054690;28;20123;-76
2023/06/25 01:14:59;;;;;;;9.57;7.10;;;;;;;;;;5048487;28;20059;-77
2023/06/25 01:17:26;;;;;;;9.85;7.25;;;;;;;;;;5034707;28;20119;-76
2023/06/25 01:19:53;;;;;;;12.95;7.90;;;;;;;;;;5035263;28;20049;-77
2023/06/25 01:22:27;;;;;;;9.43;7.47;;;;;;;;;;5054963;28;20127;-76
2023/06/25 01:24:54;;;;;;;9.75;7.55;;;;;;;;;;5054869;28;20102;-76
2023/06/25 01:27:21;;;;;;;11.20;7.82;;;;;;;;;;5054286;28;20128;-76
2023/06/25 01:29:48;;;;;;;10.02;7.50;;;;;;;;;;5054393;28;20407;-75
2023/06/25 01:32:15;;;;;;;9.57;7.82;;;;;;;;;;5054946;28;20049;-77
2023/06/25 01:34:42;;;;;;;9.00;7.50;;;;;;;;;;5054292;28;20052;-77
2023/06/25 01:37:08;;;;;;;9.48;8.02;;;;;;;;;;5054547;28;20127;-76
2023/06/25 01:39:36;;;;;;;8.95;7.68;;;;;;;;;;5053799;28;20079;-77
2023/06/25 01:42:04;;;;;;;9.02;7.15;;;;;;;;;;5054350;28;20103;-76
2023/06/25 01:44:32;;;;;;;10.70;7.80;;;;;;;;;;5046225;28;20071;-76
2023/06/25 01:46:59;;;;;;;9.18;7.20;;;;;;;;;;5040377;28;20108;-76
2023/06/25 01:49:26;;;;;;;9.52;7.30;;;;;;;;;;5033783;28;20049;-77
2023/06/25 01:51:53;;;;;;;8.70;7.50;;;;;;;;;;5034402;28;20424;-77
2023/06/25 01:54:20;;;;;;;9.88;7.50;;;;;;;;;;5038711;28;20563;-77
2023/06/25 01:56:47;;;;;;;9.32;7.30;;;;;;;;;;5054107;28;20507;-76
2023/06/25 01:59:14;;;;;;;10.98;8.02;;;;;;;;;;5053374;28;20053;-76
2023/06/25 02:01:41;;;;;;;10.35;7.63;;;;;;;;;;5054202;28;20683;-76
2023/06/25 02:04:07;;;;;;;10.27;8.10;;;;;;;;;;5063610;28;20084;-76
2023/06/25 02:06:34;;;;;;;9.95;8.07;;;;;;;;;;5053885;28;20127;-76
2023/06/25 02:09:01;;;;;;;11.05;8.02;;;;;;;;;;5053340;28;20076;-76
2023/06/25 02:11:27;;;;;;;9.90;8.30;;;;;;;;;;5053850;28;20080;-77
2023/06/25 02:13:55;;;;;;;11.07;8.93;;;;;;;;;;5053715;28;20045;-76
2023/06/25 02:16:22;;;;;;;10.90;8.45;;;;;;;;;;5053743;28;20132;-76
2023/06/25 02:18:49;;;;;;;10.98;8.35;;;;;;;;;;5053182;28;20045;-76
2023/06/25 02:21:16;;;;;;;11.38;8.93;;;;;;;;;;5053561;28;20049;-76
2023/06/25 02:23:43;;;;;;;10.73;8.65;;;;;;;;;;5053564;28;20055;-76
2023/06/25 02:26:10;;;;;;;12.13;8.25;;;;;;;;;;5053588;28;20054;-76
2023/06/25 02:28:36;;;;;;;10.23;8.30;;;;;;;;;;5053428;28;20127;-77
2023/06/25 02:31:04;;;;;;;11.70;7.70;;;;;;;;;;5053366;28;20134;-76
2023/06/25 02:33:31;;;;;;;9.63;7.70;;;;;;;;;;5045147;28;20045;-76
2023/06/25 02:35:58;;;;;;;9.27;7.90;;;;;;;;;;5053114;28;20045;-76
2023/06/25 02:38:24;;;;;;;9.68;8.05;;;;;;;;;;5053098;28;20147;-76
2023/06/25 02:40:51;;;;;;;9.65;7.65;;;;;;;;;;5052848;28;20467;-77
2023/06/25 02:43:18;;;;;;;9.23;6.63;;;;;;;;;;5052971;28;20088;-76
2023/06/25 02:45:44;;;;;;;9.40;7.32;;;;;;;;;;5052753;28;20132;-76
2023/06/25 02:48:12;;;;;;;11.82;7.50;;;;;;;;;;5052777;28;20551;-75
2023/06/25 02:50:39;;;;;;;8.82;6.97;;;;;;;;;;5052935;28;20041;-76
2023/06/25 02:53:06;;;;;;;8.30;6.75;;;;;;;;;;5053178;28;20555;-77
2023/06/25 02:55:32;;;;;;;9.10;7.13;;;;;;;;;;5052477;28;20484;-76
2023/06/25 02:57:59;;;;;;;11.05;7.32;;;;;;;;;;5052827;28;20056;-76
2023/06/25 03:00:25;;;;;;;9.93;7.43;;;;;;;;;;5052029;28;20482;-76
2023/06/25 03:02:52;;;;;;;8.25;6.85;;;;;;;;;;5052901;28;20111;-76
2023/06/25 03:05:20;;;;;;;8.73;6.55;;;;;;;;;;5052542;28;20137;-76
2023/06/25 03:07:51;;;;;;;8.65;7.18;;;;;;;;;;5052411;28;20479;-77
2023/06/25 03:10:18;;;;;;;10.38;8.02;;;;;;;;;;5052445;28;20599;-76
2023/06/25 03:12:45;;;;;;;9.35;6.93;;;;;;;;;;5052726;28;20155;-76
2023/06/25 03:15:12;;;;;;;9.70;6.95;;;;;;;;;;5052030;28;20049;-76
2023/06/25 03:17:39;;;;;;;9.73;6.45;;;;;;;;;;5052314;28;20128;-76
2023/06/25 03:20:07;;;;;;;10.07;6.70;;;;;;;;;;5052285;28;20048;-76
2023/06/25 03:22:35;;;;;;;8.55;6.40;;;;;;;;;;5052556;28;20056;-76
2023/06/25 03:25:01;;;;;;;9.65;6.85;;;;;;;;;;5052678;28;20049;-76
2023/06/25 03:27:28;;;;;;;8.88;6.40;;;;;;;;;;5052022;28;20056;-76
2023/06/25 03:29:55;;;;;;;9.15;7.22;;;;;;;;;;5052181;28;20045;-75
2023/06/25 03:32:21;;;;;;;8.93;6.30;;;;;;;;;;5052508;28;20051;-77
2023/06/25 03:34:48;;;;;;;7.78;6.47;;;;;;;;;;5051940;28;20127;-76
2023/06/25 03:37:15;;;;;;;8.90;6.97;;;;;;;;;;5051441;28;20076;-76
2023/06/25 03:39:43;;;;;;;9.20;6.90;;;;;;;;;;5051895;28;20049;-77
2023/06/25 03:42:09;;;;;;;9.10;6.90;;;;;;;;;;5052283;28;20131;-76
2023/06/25 03:44:36;;;;;;;8.48;6.28;;;;;;;;;;5052024;28;20144;-76
2023/06/25 03:47:02;;;;;;;8.38;7.00;;;;;;;;;;5051905;28;20415;-76
2023/06/25 03:49:29;;;;;;;9.25;6.88;;;;;;;;;;5051096;28;20147;-76
2023/06/25 03:51:56;;;;;;;9.40;7.10;;;;;;;;;;5052147;28;20496;-77
2023/06/25 03:54:22;;;;;;;9.45;6.70;;;;;;;;;;5052215;28;20135;-76
2023/06/25 03:56:50;;;;;;;8.63;6.43;;;;;;;;;;5051956;28;20127;-76
2023/06/25 03:59:17;;;;;;;7.18;5.75;;;;;;;;;;5049058;28;20099;-76
2023/06/25 04:01:44;;;;;;;8.60;6.85;;;;;;;;;;5032282;28;20084;-76
2023/06/25 04:04:10;;;;;;;10.02;7.03;;;;;;;;;;5047304;28;20144;-77
2023/06/25 04:06:37;;;;;;;9.57;6.25;;;;;;;;;;5052129;28;20121;-76
2023/06/25 04:09:04;;;;;;;8.40;6.32;;;;;;;;;;5051186;28;20135;-76
2023/06/25 04:11:31;;;;;;;9.57;6.25;;;;;;;;;;5052059;28;20045;-76
2023/06/25 04:13:59;;;;;;;8.13;6.40;;;;;;;;;;5054465;28;20067;-76
2023/06/25 04:16:26;;;;;;;8.90;6.32;;;;;;;;;;5047284;28;20137;-76
2023/06/25 04:18:52;;;;;;;9.05;6.10;;;;;;;;;;5055273;28;20143;-76
2023/06/25 04:21:19;;;;;;;6.93;5.97;;;;;;;;;;5056208;28;20045;-76
2023/06/25 04:23:46;;;;;;;8.63;6.35;;;;;;;;;;5056144;28;20084;-75
2023/06/25 04:26:13;;;;;;;7.22;5.80;;;;;;;;;;5056077;28;20508;-77
2023/06/25 04:28:40;;;;;;;8.13;6.47;;;;;;;;;;5055749;28;20132;-76
2023/06/25 04:31:08;;;;;;;7.10;5.22;;;;;;;;;;5055011;28;20052;-76
2023/06/25 04:33:41;;;;;;;8.27;5.45;;;;;;;;;;5055815;28;20139;-78
2023/06/25 04:36:07;;;;;;;7.97;5.57;;;;;;;;;;5055630;28;20051;-77
2023/06/25 04:38:34;;;;;;;8.10;5.65;;;;;;;;;;5055745;28;20041;-76
2023/06/25 04:41:01;;;;;;;8.00;5.95;;;;;;;;;;5055180;28;20425;-76
2023/06/25 04:43:28;;;;;;;7.22;6.00;;;;;;;;;;5055917;28;20073;-77
2023/06/25 04:45:55;;;;;;;7.22;5.32;;;;;;;;;;5055441;28;20057;-77
2023/06/25 04:48:23;;;;;;;7.53;5.22;;;;;;;;;;5057705;28;20064;-76
2023/06/25 04:50:50;;;;;;;7.70;5.55;;;;;;;;;;5056834;28;20128;-76
2023/06/25 04:53:16;;;;;;;6.72;4.78;;;;;;;;;;5056059;28;20143;-77
2023/06/25 04:55:43;;;;;;;6.95;5.20;;;;;;;;;;5057033;28;20049;-76
2023/06/25 04:58:10;;;;;;;7.32;5.15;;;;;;;;;;5056744;28;20049;-76
2023/06/25 05:00:36;;;;;;;6.57;4.88;;;;;;;;;;5056759;28;20085;-77
2023/06/25 05:03:03;;;;;;;7.13;5.60;;;;;;;;;;5054221;28;20139;-76
2023/06/25 05:05:32;;;;;;;6.68;5.10;;;;;;;;;;5046863;28;20484;-76
2023/06/25 05:07:59;;;;;;;8.07;5.55;;;;;;;;;;5057815;28;20055;-76
2023/06/25 05:10:25;;;;;;;7.18;5.70;;;;;;;;;;5057180;28;20052;-76
2023/06/25 05:12:52;;;;;;;7.10;4.95;;;;;;;;;;5057780;28;20127;-77
2023/06/25 05:15:18;;;;;;;6.20;4.50;;;;;;;;;;5057620;28;20108;-77
2023/06/25 05:17:45;;;;;;;7.63;5.00;;;;;;;;;;5058024;28;20140;-76
2023/06/25 05:20:12;;;;;;;7.07;5.00;;;;;;;;;;5056593;28;20137;-76
2023/06/25 05:22:40;;;;;;;7.45;5.60;;;;;;;;;;5055916;28;20136;-77
2023/06/25 05:25:08;;;;;;;7.13;5.47;;;;;;;;;;5054974;28;20045;-77
2023/06/25 05:27:34;;;;;;;7.35;5.30;;;;;;;;;;5055986;28;20182;-76
2023/06/25 05:30:01;;;;;;;7.63;5.35;;;;;;;;;;5054488;28;20044;-76
2023/06/25 05:32:28;;;;;;;7.65;5.75;;;;;;;;;;5055861;28;20127;-77
2023/06/25 05:34:54;;;;;;;7.07;5.20;;;;;;;;;;5050752;28;20041;-76
2023/06/25 05:37:21;;;;;;;6.93;5.20;;;;;;;;;;5054572;28;20052;-76
2023/06/25 05:39:49;;;;;;;7.72;5.47;;;;;;;;;;5054072;28;20499;-76
2023/06/25 05:42:16;;;;;;;6.55;4.95;;;;;;;;;;5053946;28;20045;-76
2023/06/25 05:44:42;;;;;;;7.25;5.43;;;;;;;;;;5053756;28;20132;-76
2023/06/25 05:47:09;;;;;;;6.43;4.97;;;;;;;;;;5054514;28;20083;-76
2023/06/25 05:49:35;;;;;;;7.18;5.03;;;;;;;;;;5053878;28;20103;-76
2023/06/25 05:52:02;;;;;;;7.35;4.63;;;;;;;;;;5054174;28;20080;-76
2023/06/25 05:54:29;;;;;;;6.15;4.75;;;;;;;;;;5053562;28;20044;-76
2023/06/25 05:56:57;;;;;;;6.70;5.20;;;;;;;;;;5054075;28;20067;-76
2023/06/25 05:59:24;;;;;;;5.95;4.38;;;;;;;;;;5053352;28;20131;-76
2023/06/25 06:01:51;;;;;;;6.53;4.90;;;;;;;;;;5053774;28;20095;-76
2023/06/25 06:04:17;;;;;;;6.57;4.55;;;;;;;;;;5053692;28;20084;-77
2023/06/25 06:06:44;;;;;;;7.30;4.70;;;;;;;;;;5053445;28;20049;-76
2023/06/25 06:09:10;;;;;;;6.55;4.70;;;;;;;;;;5053058;28;20139;-78
2023/06/25 06:11:37;;;;;;;6.13;4.57;;;;;;;;;;5053878;28;20463;-77
2023/06/25 06:14:06;;;;;;;6.35;4.75;;;;;;;;;;5053619;28;20334;-76
2023/06/25 06:16:32;;;;;;;6.18;4.65;;;;;;;;;;5053086;28;20132;-76
2023/06/25 06:18:59;;;;;;;6.72;4.47;;;;;;;;;;5053187;28;20091;-77
2023/06/25 06:21:26;;;;;;;6.82;4.63;;;;;;;;;;5053365;28;20113;-76
2023/06/25 06:23:53;;;;;;;6.50;4.38;;;;;;;;;;5053550;28;20049;-77
2023/06/25 06:26:19;;;;;;;5.95;4.15;;;;;;;;;;5053093;28;20047;-75
2023/06/25 06:28:46;;;;;;;6.15;4.47;;;;;;;;;;5055272;28;20524;-77
2023/06/25 06:31:14;;;;;;;5.88;4.10;;;;;;;;;;5055390;28;20496;-77
2023/06/25 06:33:41;;;;;;;6.57;4.55;;;;;;;;;;5055520;28;20407;-77
2023/06/25 06:36:08;;;;;;;6.78;4.40;;;;;;;;;;5047866;28;20492;-76
2023/06/25 06:38:35;;;;;;;5.53;4.13;;;;;;;;;;5056045;28;20053;-77
2023/06/25 06:41:02;;;;;;;5.60;4.05;;;;;;;;;;5055616;28;20514;-77
2023/06/25 06:43:28;;;;;;;6.30;4.28;;;;;;;;;;5056248;28;20049;-77
2023/06/25 06:45:55;;;;;;;6.82;4.32;;;;;;;;;;5046042;28;20543;-77
2023/06/25 06:48:23;;;;;;;6.47;4.32;;;;;;;;;;5056266;28;20049;-80
2023/06/25 06:50:50;;;;;;;6.90;4.32;;;;;;;;;;5056650;28;20045;-77
2023/06/25 06:53:16;;;;;;;6.38;4.93;;;;;;;;;;5056691;28;20052;-76
2023/06/25 06:55:43;;;;;;;7.10;4.50;;;;;;;;;;5056391;28;20084;-77
2023/06/25 06:58:10;;;;;;;6.38;4.32;;;;;;;;;;5067163;22;20079;-76
2023/06/25 07:00:37;;;;;;;6.55;3.72;;;;;;;;;;5046662;28;20517;-76
2023/06/25 07:03:03;;;;;;;6.15;4.05;;;;;;;;;;5049548;28;20047;-76
2023/06/25 07:05:31;;;;;;;6.28;4.25;;;;;;;;;;5050145;28;20063;-77
2023/06/25 07:07:58;;;;;;;5.68;4.25;;;;;;;;;;5049473;28;20484;-77
2023/06/25 07:10:25;;;;;;;6.90;4.50;;;;;;;;;;5049468;28;20132;-77
2023/06/25 07:12:51;;;;;;;5.57;3.97;;;;;;;;;;5050115;28;20043;-77
2023/06/25 07:15:18;;;;;;;6.03;4.07;;;;;;;;;;5052740;28;20106;-77
2023/06/25 07:17:45;;;;;;;6.38;4.00;;;;;;;;;;5052814;28;20128;-76
2023/06/25 07:20:12;;;;;;;6.28;4.10;;;;;;;;;;5052554;28;20049;-76
2023/06/25 07:22:40;;;;;;;5.63;3.88;;;;;;;;;;5052724;28;20132;-76
2023/06/25 07:25:10;;;;;;;6.80;4.15;;;;;;;;;;5052682;28;20045;-76
2023/06/25 07:27:36;;;;;;;7.00;4.60;;;;;;;;;;5052423;28;20077;-76
2023/06/25 07:30:03;;;;;;;5.72;3.67;;;;;;;;;;5051504;28;20130;-77
2023/06/25 07:32:30;;;;;;;5.80;3.95;;;;;;;;;;5052028;28;20576;-76
2023/06/25 07:34:58;;;;;;;6.30;4.30;;;;;;;;;;5051841;28;20439;-78
2023/06/25 07:37:24;;;;;;;6.40;4.20;;;;;;;;;;5052191;28;20045;-79
2023/06/25 07:39:52;;;;;;;5.90;4.13;;;;;;;;;;5052259;28;20127;-78
2023/06/25 07:42:19;;;;;;;7.90;4.10;;;;;;;;;;5052886;28;20045;-77
2023/06/25 07:44:46;;;;;;;6.82;4.72;;;;;;;;;;5052728;28;20128;-77
2023/06/25 07:47:12;;;;;;;6.25;3.90;;;;;;;;;;5053228;28;20048;-77
2023/06/25 07:49:39;;;;;;;8.68;4.47;;;;;;;;;;5051834;28;20073;-78
2023/06/25 07:52:06;;;;;;;6.70;4.68;;;;;;;;;;5053611;28;20072;-76
2023/06/25 07:54:33;;;;;;;6.60;4.57;;;;;;;;;;5056189;28;20044;-77
2023/06/25 07:57:01;;;;;;;6.55;4.30;;;;;;;;;;5052442;28;20488;-77
2023/06/25 07:59:27;;;;;;;8.27;4.75;;;;;;;;;;5050504;28;20040;-77
2023/06/25 08:01:54;;;;;;;7.57;4.60;;;;;;;;;;5052007;28;20559;-77
2023/06/25 08:04:21;;;;;;;6.57;4.70;;;;;;;;;;5052209;28;20190;-77
2023/06/25 08:06:47;;;;;;;6.32;4.65;;;;;;;;;;5059269;28;20048;-78
2023/06/25 08:09:14;;;;;;;7.40;4.68;;;;;;;;;;5059794;28;20080;-79
2023/06/25 08:11:41;;;;;;;6.63;4.45;;;;;;;;;;5064013;28;20124;-76
2023/06/25 08:14:09;;;;;;;7.18;5.07;;;;;;;;;;5057766;28;20121;-78
2023/06/25 08:16:36;;;;;;;6.47;4.30;;;;;;;;;;5054073;28;20460;-77
2023/06/25 08:19:03;;;;;;;6.40;4.00;;;;;;;;;;5054123;28;20076;-78
2023/06/25 08:21:29;;;;;;;5.85;4.13;;;;;;;;;;5057003;28;20053;-78
2023/06/25 08:23:56;;;;;;;5.57;4.10;;;;;;;;;;5057353;28;20128;-77
2023/06/25 08:26:23;;;;;;;5.55;4.00;;;;;;;;;;5054863;28;20144;-77
2023/06/25 08:28:49;;;;;;;7.13;4.57;;;;;;;;;;5053601;28;20120;-78
2023/06/25 08:31:17;;;;;;;6.40;4.25;;;;;;;;;;5050878;28;20523;-76
2023/06/25 08:33:44;;;;;;;6.22;4.63;;;;;;;;;;5048533;28;20108;-77
2023/06/25 08:36:10;;;;;;;5.88;4.38;;;;;;;;;;5056369;28;20067;-78
2023/06/25 08:38:37;;;;;;;6.70;4.13;;;;;;;;;;5069605;28;20044;-76
2023/06/25 08:41:04;;;;;;;6.95;4.40;;;;;;;;;;5070030;28;20092;-76
2023/06/25 08:43:31;;;;;;;6.82;4.63;;;;;;;;;;5055707;28;20056;-75
2023/06/25 08:45:58;;;;;;;7.95;4.18;;;;;;;;;;5053146;28;20056;-77
2023/06/25 08:48:29;;;;;;;9.65;4.22;;;;;;;;;;5038248;28;20073;-76
2023/06/25 08:50:57;;;;;;;6.72;4.45;;;;;;;;;;5047859;28;20045;-76
2023/06/25 08:53:26;;;;;;;7.35;4.40;;;;;;;;;;5051985;28;20053;-78
2023/06/25 08:55:55;;;;;;;6.47;4.10;;;;;;;;;;5054292;28;20419;-76
2023/06/25 08:58:24;;;;;;;5.90;4.00;;;;;;;;;;5060196;28;20053;-78
2023/06/25 09:00:50;;;;;;;6.68;4.30;;;;;;;;;;5064234;28;20310;-75
2023/06/25 09:03:17;;;;;;;8.43;4.80;;;;;;;;;;5059717;28;20451;-76
2023/06/25 09:05:53;;;;;;;5.97;4.30;;;;;;;;;;5056493;28;20577;-77
2023/06/25 09:08:22;;;;;;;6.22;4.05;;;;;;;;;;5049889;28;20062;-76
2023/06/25 09:10:52;;;;;;;7.43;4.70;;;;;;;;;;5048731;28;20045;-78
2023/06/25 09:13:23;;;;;;;6.30;4.35;;;;;;;;;;5052433;28;20080;-76
2023/06/25 09:15:50;;;;;;;6.85;4.47;;;;;;;;;;5059420;28;20065;-78
2023/06/25 09:18:20;;;;;;;6.07;4.25;;;;;;;;;;5058812;28;20073;-78
2023/06/25 09:20:47;;;;;;;;;;;;;;;;;;5054980;28;20401;-76
2023/06/25 09:23:21;;;;;;;5.65;4.18;;;;;;;;;;5056395;28;19928;-79
2023/06/25 09:25:49;;;;;;;7.53;4.82;;;;;;;;;;5050384;28;20049;-77
2023/06/25 09:28:18;;;;;;;6.78;4.60;;;;;;;;;;5053856;28;20083;-78
2023/06/25 09:30:45;;;;;;;7.05;4.70;;;;;;;;;;5058654;28;20460;-78
2023/06/25 09:33:13;;;;;;;6.25;4.32;;;;;;;;;;5053758;28;20045;-76
2023/06/25 09:35:40;;;;;;;7.97;5.32;;;;;;;;;;5055169;28;20072;-76
2023/06/25 09:38:07;;;;;;;8.07;4.95;;;;;;;;;;5060282;28;20045;-75
2023/06/25 09:40:35;;;;;;;7.35;5.30;;;;;;;;;;5063242;28;20472;-75
2023/06/25 09:43:05;;;;;;;6.95;5.43;;;;;;;;;;5057936;28;20128;-78
2023/06/25 09:45:32;;;;;;;;;;;;;;;;;;5056949;28;20084;-75
2023/06/25 09:47:59;;;;;;;9.57;5.05;;;;;;;;;;5057237;28;19927;-75
2023/06/25 09:50:28;;;;;;;7.13;4.72;;;;;;;;;;5056432;28;20140;-77
2023/06/25 09:52:57;;;;;;;7.33;4.90;;;;;;;;;;5054291;28;20049;-76
2023/06/25 09:55:25;;;;;;;6.32;5.10;;;;;;;;;;5062011;28;20045;-77
2023/06/25 09:57:54;;;;;;;7.68;5.10;;;;;;;;;;5056742;28;20487;-76
2023/06/25 10:00:22;;;;;;;7.57;5.10;;;;;;;;;;5055444;28;20072;-78
2023/06/25 10:02:50;;;;;;;7.53;5.15;;;;;;;;;;5055308;28;20057;-77
2023/06/25 10:05:17;;;;;;;7.43;5.65;;;;;;;;;;5055180;28;20049;-76
2023/06/25 10:07:45;;;;;;;7.80;5.22;;;;;;;;;;5060798;28;20048;-79
2023/06/25 10:10:20;;;;;;;6.68;5.07;;;;;;;;;;5060834;28;20105;-87
2023/06/25 10:12:48;;;;;;;6.55;4.70;;;;;;;;;;5041276;28;20397;-75
2023/06/25 10:15:26;;;;;;;8.50;5.60;;;;;;;;;;5044969;28;20119;-78
2023/06/25 10:17:53;;;;;;;8.13;5.22;;;;;;;;;;5053651;28;20041;-77
2023/06/25 10:20:26;;;;;;;8.43;5.60;;;;;;;;;;5058804;28;20470;-79
2023/06/25 10:23:03;;;;;;;8.25;5.68;;;;;;;;;;5054065;28;20505;-79
2023/06/25 10:25:32;;;;;;;53.15;34.28;;;;;;;;;;5050600;28;20042;-80
2023/06/25 10:28:04;;;;;;;13.88;9.80;;;;;;;;;;5056732;28;20137;-79
2023/06/25 10:30:40;;;;;;;51.63;32.55;;;;;;;;;;5049643;28;20076;-79
2023/06/25 10:33:07;;;;;;;52.20;35.35;;;;;;;;;;5057056;28;20057;-76
2023/06/25 10:35:40;;;;;;;8.13;5.70;;;;;;;;;;5055468;28;20084;-77
2023/06/25 10:38:07;;;;;;;33.97;23.90;;;;;;;;;;5055227;28;20045;-79
2023/06/25 10:40:37;;;;;;;9.85;6.20;;;;;;;;;;5051353;28;20148;-77
2023/06/25 10:43:04;;;;;;;17.88;12.13;;;;;;;;;;5057390;28;20049;-78
2023/06/25 10:45:31;;;;;;;15.15;10.30;;;;;;;;;;5059263;28;20068;-78
2023/06/25 10:48:05;;;;;;;9.25;6.05;;;;;;;;;;5057654;28;20092;-78
2023/06/25 10:50:32;;;;;;;8.93;6.53;;;;;;;;;;5056021;28;20080;-77
2023/06/25 10:52:59;;;;;;;7.13;5.38;;;;;;;;;;5049215;28;20396;-79
2023/06/25 10:55:28;;;;;;;6.80;5.20;;;;;;;;;;5054087;28;20055;-80
2023/06/25 10:57:58;;;;;;;6.93;5.32;;;;;;;;;;5055379;28;20690;-78
2023/06/25 11:00:27;;;;;;;7.60;6.03;;;;;;;;;;5053445;28;20049;-76
2023/06/25 11:02:54;;;;;;;7.85;5.05;;;;;;;;;;5044127;28;20435;-77
2023/06/25 11:05:33;;;;;;;6.72;5.32;;;;;;;;;;5048503;28;20091;-77
2023/06/25 11:07:59;;;;;;;7.88;5.82;;;;;;;;;;5049888;28;20056;-77
2023/06/25 11:10:27;;;;;;;7.72;5.45;;;;;;;;;;5049818;28;20071;-78
2023/06/25 11:12:55;;;;;;;7.82;5.47;;;;;;;;;;5058094;28;20072;-77
2023/06/25 11:15:22;;;;;;;7.55;6.10;;;;;;;;;;5049351;28;20041;-76
2023/06/25 11:17:52;;;;;;;7.70;5.47;;;;;;;;;;5053102;28;20077;-77
2023/06/25 11:20:18;;;;;;;7.82;6.15;;;;;;;;;;5047409;28;20050;-77
2023/06/25 11:22:47;;;;;;;8.57;6.20;;;;;;;;;;5053145;28;20098;-77
2023/06/25 11:25:14;;;;;;;8.65;5.68;;;;;;;;;;5048753;28;20108;-77
2023/06/25 11:27:41;;;;;;;9.27;6.30;;;;;;;;;;5054104;28;20041;-75
2023/06/25 11:30:09;;;;;;;7.78;5.35;;;;;;;;;;5049103;28;20049;-76
2023/06/25 11:32:38;;;;;;;7.72;5.55;;;;;;;;;;5054248;28;20310;-76
2023/06/25 11:35:13;;;;;;;8.48;5.90;;;;;;;;;;5052304;28;20128;-75
2023/06/25 11:37:44;;;;;;;8.10;6.30;;;;;;;;;;5050451;28;20487;-77
2023/06/25 11:40:22;;;;;;;8.10;5.50;;;;;;;;;;5047572;28;20041;-77
2023/06/25 11:42:51;;;;;;;11.07;7.35;;;;;;;;;;5046886;28;20159;-78
2023/06/25 11:45:18;;;;;;;9.52;6.57;;;;;;;;;;5054297;28;20045;-77
2023/06/25 11:47:46;;;;;;;7.63;6.18;;;;;;;;;;5045740;28;20052;-76
2023/06/25 11:50:13;;;;;;;7.30;5.90;;;;;;;;;;5053097;28;20051;-77
2023/06/25 11:52:40;;;;;;;8.70;6.13;;;;;;;;;;5054061;28;20041;-78
2023/06/25 11:55:07;;;;;;;7.93;5.80;;;;;;;;;;5055840;28;20056;-77
2023/06/25 11:57:36;;;;;;;8.15;5.80;;;;;;;;;;5051927;28;20140;-78
2023/06/25 12:00:04;;;;;;;8.60;5.50;;;;;;;;;;5054758;28;20041;-79
2023/06/25 12:02:31;;;;;;;7.95;5.70;;;;;;;;;;5047890;28;20045;-77
2023/06/25 12:04:57;;;;;;;9.18;6.57;;;;;;;;;;5055004;28;20438;-76
2023/06/25 12:07:24;;;;;;;7.45;5.75;;;;;;;;;;5050737;28;20052;-77
2023/06/25 12:09:51;;;;;;;8.45;6.32;;;;;;;;;;5054570;28;20052;-76
2023/06/25 12:12:18;;;;;;;7.68;6.18;;;;;;;;;;5054475;28;20048;-77
2023/06/25 12:14:47;;;;;;;7.80;5.88;;;;;;;;;;5050961;28;20081;-78
2023/06/25 12:17:14;;;;;;;7.65;6.03;;;;;;;;;;5042310;28;20041;-76
2023/06/25 12:19:40;;;;;;;7.25;5.93;;;;;;;;;;5048182;28;20457;-77
2023/06/25 12:22:07;;;;;;;8.63;5.63;;;;;;;;;;5053081;28;20525;-78
2023/06/25 12:24:34;;;;;;;8.13;6.47;;;;;;;;;;5054887;28;20045;-78
2023/06/25 12:27:04;;;;;;;7.60;5.78;;;;;;;;;;5054006;28;20056;-77
2023/06/25 12:29:32;;;;;;;8.13;6.25;;;;;;;;;;5050255;28;20060;-77
2023/06/25 12:32:00;;;;;;;8.88;6.47;;;;;;;;;;5050792;28;20408;-78
2023/06/25 12:34:27;;;;;;;9.18;6.30;;;;;;;;;;5058696;28;20525;-77
2023/06/25 12:36:55;;;;;;;8.23;5.85;;;;;;;;;;5058052;28;20059;-76
2023/06/25 12:39:21;;;;;;;8.00;6.57;;;;;;;;;;5054944;28;20440;-78
2023/06/25 12:41:48;;;;;;;9.38;5.88;;;;;;;;;;5059316;28;20127;-78
2023/06/25 12:44:15;;;;;;;9.13;7.00;;;;;;;;;;5057782;28;20068;-76
2023/06/25 12:46:42;;;;;;;8.23;6.78;;;;;;;;;;5057387;28;20049;-77
2023/06/25 12:49:10;;;;;;;8.23;6.53;;;;;;;;;;5054604;28;20143;-77
2023/06/25 12:51:37;;;;;;;8.23;6.40;;;;;;;;;;5058529;28;20044;-77
2023/06/25 12:54:04;;;;;;;8.35;6.75;;;;;;;;;;5057022;28;20049;-78
2023/06/25 12:56:33;;;;;;;8.75;6.38;;;;;;;;;;5056245;28;20055;-76
2023/06/25 12:59:00;;;;;;;9.15;6.57;;;;;;;;;;5053882;28;20049;-77
2023/06/25 13:01:27;;;;;;;8.65;7.10;;;;;;;;;;5045944;28;20073;-76
2023/06/25 13:03:53;;;;;;;7.90;6.35;;;;;;;;;;5056556;28;20049;-77
2023/06/25 13:06:21;;;;;;;8.73;6.75;;;;;;;;;;5050418;28;20045;-78
2023/06/25 13:08:48;;;;;;;7.80;6.65;;;;;;;;;;5054619;28;20128;-76
2023/06/25 13:11:15;;;;;;;8.30;6.88;;;;;;;;;;5051823;28;20068;-77
2023/06/25 13:13:41;;;;;;;8.48;7.40;;;;;;;;;;5043851;28;20405;-77
2023/06/25 13:16:08;;;;;;;7.90;6.55;;;;;;;;;;5049543;28;20048;-77
2023/06/25 13:18:38;;;;;;;7.57;6.13;;;;;;;;;;5047192;28;20113;-77
2023/06/25 13:21:05;;;;;;;;;;;;;;;;;;5055062;28;20060;-77
2023/06/25 13:23:33;;;;;;;8.98;6.60;;;;;;;;;;5055717;28;19920;-78
2023/06/25 13:25:59;;;;;;;8.27;6.53;;;;;;;;;;5053414;28;20040;-77
2023/06/25 13:28:26;;;;;;;8.73;6.68;;;;;;;;;;5054031;28;20136;-77
2023/06/25 13:30:53;;;;;;;9.10;6.97;;;;;;;;;;5074478;22;20055;-77
2023/06/25 13:33:20;;;;;;;9.80;7.05;;;;;;;;;;5084518;28;20104;-77
2023/06/25 13:35:46;;;;;;;8.73;6.80;;;;;;;;;;5088591;28;20040;-78
2023/06/25 13:38:13;;;;;;;8.10;6.70;;;;;;;;;;5074414;28;20059;-80
2023/06/25 13:40:42;;;;;;;7.82;6.75;;;;;;;;;;5064553;28;20075;-80
2023/06/25 13:43:09;;;;;;;8.02;6.70;;;;;;;;;;5070867;28;20052;-81
2023/06/25 13:45:35;;;;;;;8.27;6.68;;;;;;;;;;5072689;28;20048;-79
2023/06/25 13:48:02;;;;;;;8.60;7.30;;;;;;;;;;5074415;28;20045;-80
2023/06/25 13:50:28;;;;;;;8.77;7.07;;;;;;;;;;5066437;28;20606;-80
2023/06/25 13:52:55;;;;;;;8.07;7.18;;;;;;;;;;5070734;28;20147;-81
2023/06/25 13:55:22;;;;;;;7.75;6.95;;;;;;;;;;5072351;28;20044;-79
2023/06/25 13:57:50;;;;;;;9.48;6.82;;;;;;;;;;5064392;28;20068;-80
2023/06/25 14:00:17;;;;;;;10.07;7.10;;;;;;;;;;5066160;28;20073;-78
2023/06/25 14:02:44;;;;;;;9.40;6.75;;;;;;;;;;5070303;28;20430;-79
2023/06/25 14:05:11;;;;;;;14.25;7.47;;;;;;;;;;5073631;28;20045;-84
2023/06/25 14:07:38;;;;;;;9.02;7.07;;;;;;;;;;5065219;28;20556;-87
2023/06/25 14:10:06;;;;;;;8.70;7.45;;;;;;;;;;5066807;28;20660;-85
2023/06/25 14:12:33;;;;;;;8.88;7.18;;;;;;;;;;5058946;28;20787;-80
2023/06/25 14:15:01;;;;;;;9.63;7.30;;;;;;;;;;5076191;28;20051;-81
2023/06/25 14:17:28;;;;;;;8.57;6.90;;;;;;;;;;5079369;28;20049;-79
2023/06/25 14:19:55;;;;;;;7.68;6.85;;;;;;;;;;5064093;28;20044;-79
2023/06/25 14:22:21;;;;;;;7.85;7.03;;;;;;;;;;5065131;28;20100;-78
2023/06/25 14:24:48;;;;;;;7.55;6.75;;;;;;;;;;5076424;28;20075;-77
2023/06/25 14:27:15;;;;;;;8.73;6.95;;;;;;;;;;5066810;28;20107;-79
2023/06/25 14:29:41;;;;;;;8.95;7.63;;;;;;;;;;5070502;28;20056;-79
2023/06/25 14:32:10;;;;;;;8.40;7.28;;;;;;;;;;5073979;28;20041;-77
2023/06/25 14:34:36;;;;;;;7.63;6.50;;;;;;;;;;5084437;28;20035;-79
2023/06/25 14:37:03;;;;;;;8.38;6.50;;;;;;;;;;5073265;28;20059;-80
2023/06/25 14:39:30;;;;;;;7.50;6.50;;;;;;;;;;5056767;28;20157;-80
2023/06/25 14:41:56;;;;;;;7.22;6.30;;;;;;;;;;5057471;28;20045;-84
2023/06/25 14:44:23;;;;;;;7.80;6.20;;;;;;;;;;5072911;28;20047;-83